Time;durP1;ratioP1;P1;durP2;ratioP2;P2;SDS_P1;SDS_P2;PMS_P1;PMS_P2;Temp;Humidity;BMP_temperature;BMP_pressure;BME280_temperature;BME280_humidity;BME280_pressure;Samples;Min_cycle;Max_cycle;Signal;HPM_P1;HPM_P2
2023/04/21 00:01:45;;;;;;;;;4.50;3.50;;;;;20.30;39.19;100716.75;5049311;28;45241;-43
2023/04/21 00:04:13;;;;;;;;;5.00;5.00;;;;;20.35;39.24;100714.69;5050597;28;46530;-40
2023/04/21 00:06:40;;;;;;;;;6.00;3.25;;;;;20.39;38.61;100708.34;5040691;28;45394;-40
2023/04/21 00:09:09;;;;;;;;;3.75;3.50;;;;;20.44;38.87;100704.63;5054396;28;45702;-41
2023/04/21 00:11:35;;;;;;;;;4.75;4.00;;;;;20.47;39.03;100707.03;5038690;28;45246;-38
2023/04/21 00:14:00;;;;;;;;;4.75;3.00;;;;;20.51;38.50;100711.22;5036793;28;46153;-38
2023/04/21 00:16:26;;;;;;;;;5.75;4.50;;;;;20.54;38.40;100716.31;5036502;28;45279;-37
2023/04/21 00:18:51;;;;;;;;;3.50;3.50;;;;;20.57;38.48;100710.84;5035604;28;45298;-38
2023/04/21 00:21:17;;;;;;;;;3.00;3.00;;;;;20.60;39.33;100704.56;5036564;28;48686;-39
2023/04/21 00:23:42;;;;;;;;;3.75;2.75;;;;;20.61;38.96;100698.38;5036203;28;46431;-40
2023/04/21 00:26:08;;;;;;;;;4.50;4.00;;;;;20.63;38.89;100699.09;5036066;28;45522;-38
2023/04/21 00:28:33;;;;;;;;;3.50;3.50;;;;;20.64;39.31;100700.81;5036205;28;45465;-38
2023/04/21 00:30:58;;;;;;;;;3.75;3.50;;;;;20.63;38.91;100694.72;5034888;28;45375;-41
2023/04/21 00:33:24;;;;;;;;;5.50;3.25;;;;;20.60;38.79;100680.88;5035720;28;46558;-40
2023/04/21 00:35:49;;;;;;;;;3.75;3.75;;;;;20.65;39.39;100697.25;5035788;28;45426;-38
2023/04/21 00:38:14;;;;;;;;;5.00;3.75;;;;;20.63;39.59;100691.22;5036259;28;45265;-40
2023/04/21 00:40:40;;;;;;;;;3.00;3.00;;;;;20.63;38.77;100685.94;5035721;28;45439;-40
2023/04/21 00:43:06;;;;;;;;;6.00;3.75;;;;;20.62;39.18;100677.22;5035167;28;59562;-40
2023/04/21 00:45:32;;;;;;;;;2.00;2.00;;;;;20.58;39.59;100659.88;5035661;28;45351;-38
2023/04/21 00:47:58;;;;;;;;;4.25;3.00;;;;;20.60;39.20;100657.19;5035696;28;45316;-40
2023/04/21 00:50:23;;;;;;;;;6.00;3.50;;;;;20.60;39.64;100658.00;5035924;28;45276;-42
2023/04/21 00:52:49;;;;;;;;;2.50;2.50;;;;;20.60;39.46;100657.19;5045731;28;45247;-38
2023/04/21 00:55:14;;;;;;;;;3.00;3.00;;;;;20.59;39.54;100661.59;5054342;28;44864;-40
2023/04/21 00:57:40;;;;;;;;;3.00;3.00;;;;;20.58;39.60;100654.63;5036726;28;45771;-41
2023/04/21 01:00:07;;;;;;;;;3.00;3.00;;;;;20.58;39.75;100648.50;5037149;28;45203;-38
2023/04/21 01:02:36;;;;;;;;;4.00;3.75;;;;;20.57;39.77;100657.34;5036532;28;46346;-40
2023/04/21 01:05:06;;;;;;;;;3.25;2.50;;;;;20.54;39.89;100653.94;5041520;28;45895;-39
2023/04/21 01:07:31;;;;;;;;;3.00;3.00;;;;;20.54;39.48;100647.84;5049285;28;45281;-39
2023/04/21 01:09:58;;;;;;;;;2.75;2.75;;;;;20.53;40.23;100649.63;5040364;28;45440;-39
2023/04/21 01:12:24;;;;;;;;;5.00;4.00;;;;;20.51;39.82;100642.75;5039888;28;46555;-38
2023/04/21 01:14:49;;;;;;;;;3.75;3.50;;;;;20.49;39.59;100631.47;5040484;28;45256;-38
2023/04/21 01:17:16;;;;;;;;;3.00;2.00;;;;;20.50;39.93;100635.78;5043140;28;45319;-39
2023/04/21 01:19:43;;;;;;;;;2.00;2.00;;;;;20.47;39.68;100633.34;5042881;28;45559;-39
2023/04/21 01:22:10;;;;;;;;;3.00;3.00;;;;;20.45;39.52;100633.44;5044805;28;46291;-40
2023/04/21 01:24:44;;;;;;;;;4.00;4.00;;;;;20.46;40.06;100629.00;5050206;28;45292;-41
2023/04/21 01:27:15;;;;;;;;;3.00;2.25;;;;;20.46;39.67;100636.91;5043797;28;45387;-38
2023/04/21 01:29:42;;;;;;;;;5.25;3.00;;;;;20.42;40.27;100630.97;5043354;28;45363;-38
2023/04/21 01:32:11;;;;;;;;;3.75;3.75;;;;;20.42;40.10;100624.88;5049056;28;46600;-40
2023/04/21 01:34:37;;;;;;;;;4.00;4.00;;;;;20.40;39.88;100627.56;5056862;28;45226;-38
2023/04/21 01:37:07;;;;;;;;;4.25;3.00;;;;;20.38;40.32;100626.84;5056216;28;45403;-39
2023/04/21 01:39:32;;;;;;;;;4.00;4.00;;;;;20.37;40.27;100633.88;5050550;28;45326;-43
2023/04/21 01:41:58;;;;;;;;;3.00;3.00;;;;;20.38;39.70;100626.84;5053274;28;45579;-41
2023/04/21 01:44:24;;;;;;;;;2.75;2.75;;;;;20.36;40.18;100623.44;5060168;28;45195;-39
2023/04/21 01:46:50;;;;;;;;;4.00;4.00;;;;;20.35;40.14;100633.09;5055779;28;44666;-40
2023/04/21 01:49:16;;;;;;;;;3.25;3.00;;;;;20.35;40.33;100621.75;5046932;28;45362;-40
2023/04/21 01:51:41;;;;;;;;;3.00;3.00;;;;;20.33;39.81;100608.69;5042029;28;56572;-39
2023/04/21 01:54:06;;;;;;;;;4.00;4.00;;;;;20.33;39.92;100607.81;5040645;28;55148;-39
2023/04/21 01:56:32;;;;;;;;;5.25;4.00;;;;;20.32;40.53;100612.25;5039817;28;45310;-38
2023/04/21 01:58:57;;;;;;;;;4.00;3.00;;;;;20.30;40.17;100608.84;5039693;28;45371;-38
2023/04/21 02:01:22;;;;;;;;;5.00;4.00;;;;;20.31;40.00;100609.69;5039004;28;45543;-37
2023/04/21 02:03:48;;;;;;;;;3.00;3.00;;;;;20.28;40.81;100600.19;5038512;28;45452;-38
2023/04/21 02:06:13;;;;;;;;;4.00;3.00;;;;;20.30;40.58;100605.34;5038543;28;49785;-38
2023/04/21 02:08:39;;;;;;;;;4.00;4.00;;;;;20.28;40.81;100600.19;5038073;28;45629;-44
2023/04/21 02:11:04;;;;;;;;;3.25;3.00;;;;;20.26;41.06;100590.69;5038566;28;45475;-43
2023/04/21 02:13:30;;;;;;;;;3.25;3.25;;;;;20.25;40.90;100592.47;5038733;28;45335;-38
2023/04/21 02:15:55;;;;;;;;;2.00;2.00;;;;;20.27;41.06;100595.03;5038758;28;45360;-39
2023/04/21 02:18:20;;;;;;;;;6.50;3.00;;;;;20.24;40.56;100596.03;5038582;28;45501;-37
2023/04/21 02:20:46;;;;;;;;;4.25;3.00;;;;;20.23;41.55;100591.72;5038082;28;46738;-38
2023/04/21 02:23:11;;;;;;;;;3.00;2.50;;;;;20.22;40.99;100592.66;5038869;28;45371;-37
2023/04/21 02:25:36;;;;;;;;;4.00;3.00;;;;;20.20;41.05;100584.84;5053300;28;45149;-40
2023/04/21 02:28:02;;;;;;;;;4.00;4.00;;;;;20.19;40.92;100591.03;5046994;28;46501;-38
2023/04/21 02:30:27;;;;;;;;;1.50;1.50;;;;;20.20;40.96;100594.53;5038788;28;47219;-37
2023/04/21 02:32:52;;;;;;;;;3.00;3.00;;;;;20.18;41.12;100601.66;5038940;28;45239;-39
2023/04/21 02:35:18;;;;;;;;;3.50;3.00;;;;;20.16;41.29;100596.50;5038118;28;49895;-40
2023/04/21 02:37:43;;;;;;;;;4.75;2.25;;;;;20.15;41.62;100601.84;5039201;28;45474;-38
2023/04/21 02:40:09;;;;;;;;;4.25;4.00;;;;;20.15;41.25;100602.69;5037224;28;46215;-38
2023/04/21 02:42:34;;;;;;;;;3.00;3.00;;;;;20.14;40.81;100602.75;5038238;28;45250;-38
2023/04/21 02:44:59;;;;;;;;;4.00;4.00;;;;;20.13;41.38;100596.66;5038473;28;45463;-39
2023/04/21 02:47:25;;;;;;;;;5.00;3.00;;;;;20.13;41.22;100596.66;5039459;28;56419;-38
2023/04/21 02:49:50;;;;;;;;;4.00;4.00;;;;;20.12;41.11;100588.88;5037333;28;46921;-38
2023/04/21 02:52:15;;;;;;;;;3.00;3.00;;;;;20.10;41.38;100588.09;5037476;28;45212;-38
2023/04/21 02:54:41;;;;;;;;;2.50;2.50;;;;;20.10;41.31;100588.09;5038052;28;46001;-40
2023/04/21 02:57:06;;;;;;;;;3.00;3.00;;;;;20.08;41.60;100590.81;5037792;28;45668;-38
2023/04/21 02:59:31;;;;;;;;;4.00;3.00;;;;;20.06;41.60;100584.81;5052785;28;46292;-38
2023/04/21 03:01:57;;;;;;;;;5.50;4.00;;;;;20.05;41.26;100583.94;5055642;28;45334;-38
2023/04/21 03:04:24;;;;;;;;;3.25;3.25;;;;;20.05;41.57;100583.13;5055454;28;45339;-38
2023/04/21 03:06:50;;;;;;;;;4.75;4.00;;;;;20.03;41.22;100569.19;5038274;28;45516;-40
2023/04/21 03:09:15;;;;;;;;;3.25;2.75;;;;;20.03;41.78;100572.66;5036859;28;46355;-41
2023/04/21 03:11:40;;;;;;;;;3.75;3.75;;;;;20.02;41.10;100578.84;5036784;28;47146;-41
2023/04/21 03:14:06;;;;;;;;;3.00;3.00;;;;;20.01;41.56;100566.63;5036981;28;45468;-39
2023/04/21 03:16:31;;;;;;;;;3.00;3.00;;;;;20.00;41.59;100567.59;5036620;28;54373;-41
2023/04/21 03:18:56;;;;;;;;;3.00;3.00;;;;;19.98;41.43;100553.69;5036959;28;46392;-37
2023/04/21 03:21:21;;;;;;;;;2.50;1.00;;;;;19.99;42.18;100571.16;5037472;28;45423;-39
2023/04/21 03:23:47;;;;;;;;;3.00;3.00;;;;;19.98;41.58;100558.94;5037051;28;45407;-38
2023/04/21 03:26:12;;;;;;;;;4.00;4.00;;;;;19.96;41.66;100549.41;5036712;28;48587;-40
2023/04/21 03:28:37;;;;;;;;;3.00;3.00;;;;;19.95;41.30;100563.53;5036198;28;61460;-39
2023/04/21 03:31:03;;;;;;;;;4.00;4.00;;;;;19.95;41.66;100566.16;5035684;28;59896;-39
2023/04/21 03:33:28;;;;;;;;;3.25;3.25;;;;;19.93;41.28;100553.09;5037178;28;45267;-38
2023/04/21 03:35:53;;;;;;;;;4.00;4.00;;;;;19.93;41.53;100555.72;5039692;28;45200;-39
2023/04/21 03:38:19;;;;;;;;;4.75;3.25;;;;;19.92;41.76;100551.38;5043526;28;60201;-38
2023/04/21 03:40:44;;;;;;;;;4.50;4.00;;;;;19.91;41.34;100560.22;5044557;28;45448;-39
2023/04/21 03:43:09;;;;;;;;;5.50;4.00;;;;;19.89;40.98;100556.84;5041515;28;45287;-38
2023/04/21 03:45:35;;;;;;;;;4.75;4.00;;;;;19.88;40.93;100561.25;5055704;28;45342;-42
2023/04/21 03:48:00;;;;;;;;;6.00;4.00;;;;;19.89;40.96;100554.22;5040028;28;46277;-43
2023/04/21 03:50:25;;;;;;;;;2.00;2.00;;;;;19.87;40.92;100553.44;5040677;28;45196;-42
2023/04/21 03:52:51;;;;;;;;;3.00;3.00;;;;;19.86;41.16;100552.56;5036728;28;45298;-43
2023/04/21 03:55:16;;;;;;;;;3.25;3.00;;;;;19.86;41.01;100549.94;5036776;28;45297;-42
2023/04/21 03:57:41;;;;;;;;;4.00;4.00;;;;;19.84;41.36;100537.81;5038613;28;46190;-45
2023/04/21 04:00:11;;;;;;;;;3.50;3.00;;;;;19.84;41.14;100550.94;5038695;28;45422;-45
2023/04/21 04:02:37;;;;;;;;;3.00;3.00;;;;;19.82;41.29;100547.56;5051815;28;45375;-45
2023/04/21 04:05:04;;;;;;;;;5.00;4.00;;;;;19.82;40.95;100542.28;5037868;28;45525;-46
2023/04/21 04:07:30;;;;;;;;;2.75;2.00;;;;;19.81;40.49;100540.59;5038019;28;46339;-47
2023/04/21 04:09:56;;;;;;;;;3.00;3.00;;;;;19.81;41.20;100532.72;5059413;28;44988;-38
2023/04/21 04:12:21;;;;;;;;;4.33;4.00;;;;;19.80;41.02;100539.75;5060534;28;64890;-39
2023/04/21 04:14:46;;;;;;;;;4.00;3.00;;;;;19.78;41.29;100528.47;5042616;28;45677;-39
2023/04/21 04:17:11;;;;;;;;;4.00;3.50;;;;;19.77;41.54;100529.41;5045349;28;46732;-38
2023/04/21 04:19:37;;;;;;;;;4.00;3.33;;;;;19.74;41.52;100530.44;5049737;28;50098;-38
2023/04/21 04:22:02;;;;;;;;;3.25;3.25;;;;;19.74;41.44;100533.06;5037644;28;45349;-44
2023/04/21 04:24:28;;;;;;;;;4.00;3.00;;;;;19.74;41.23;100532.19;5036064;28;50887;-38
2023/04/21 04:26:56;;;;;;;;;5.25;4.50;;;;;19.73;41.11;100536.63;5035872;28;46398;-38
2023/04/21 04:29:22;;;;;;;;;3.25;3.25;;;;;19.72;41.60;100531.47;5034781;28;45754;-37
2023/04/21 04:31:49;;;;;;;;;4.00;4.00;;;;;19.73;41.39;100530.53;5035966;28;45451;-40
2023/04/21 04:34:14;;;;;;;;;4.50;4.50;;;;;19.71;40.73;100529.78;5036441;28;45476;-39
2023/04/21 04:36:41;;;;;;;;;5.00;3.75;;;;;19.71;41.48;100533.22;5038013;28;46880;-44
2023/04/21 04:39:07;;;;;;;;;4.50;4.00;;;;;19.70;41.24;100531.53;5037903;28;45814;-39
2023/04/21 04:41:32;;;;;;;;;5.00;3.25;;;;;19.70;41.45;100534.16;5035083;28;45383;-38
2023/04/21 04:43:58;;;;;;;;;4.00;4.00;;;;;19.70;41.04;100530.69;5039628;28;45340;-38
2023/04/21 04:46:24;;;;;;;;;2.50;2.50;;;;;19.69;41.43;100529.84;5039071;28;46402;-40
2023/04/21 04:48:50;;;;;;;;;4.25;3.25;;;;;19.70;41.48;100531.53;5039303;28;45674;-40
2023/04/21 04:51:15;;;;;;;;;5.25;3.50;;;;;19.67;40.95;100531.72;5051639;28;45423;-40
2023/04/21 04:53:41;;;;;;;;;3.75;3.00;;;;;19.69;40.61;100531.63;5051434;28;45402;-39
2023/04/21 04:56:06;;;;;;;;;3.75;3.75;;;;;19.68;41.20;100528.13;5041836;28;46585;-39
2023/04/21 04:58:32;;;;;;;;;3.00;3.00;;;;;19.69;41.23;100534.25;5039655;28;45359;-41
2023/04/21 05:00:57;;;;;;;;;3.00;3.00;;;;;19.67;41.31;100526.47;5040021;28;45738;-44
2023/04/21 05:03:22;;;;;;;;;4.25;3.00;;;;;19.68;41.44;100528.13;5040738;28;45521;-43
2023/04/21 05:05:48;;;;;;;;;3.00;3.00;;;;;19.66;41.35;100530.03;5060863;28;45156;-43
2023/04/21 05:08:13;;;;;;;;;3.00;3.00;;;;;19.68;41.50;100527.31;5039989;28;45271;-39
2023/04/21 05:10:38;;;;;;;;;3.00;3.00;;;;;19.67;41.71;100525.59;5040820;28;45188;-41
2023/04/21 05:13:04;;;;;;;;;4.00;4.00;;;;;19.66;41.72;100529.16;5040984;28;45212;-39
2023/04/21 05:15:29;;;;;;;;;5.00;4.00;;;;;19.66;41.75;100527.41;5041440;28;45740;-40
2023/04/21 05:17:55;;;;;;;;;6.25;4.00;;;;;19.65;41.66;100522.22;5039462;28;45224;-39
2023/04/21 05:20:21;;;;;;;;;4.50;4.50;;;;;19.65;41.78;100533.59;5039663;28;45402;-41
2023/04/21 05:22:46;;;;;;;;;6.75;4.50;;;;;19.63;42.03;100531.03;5039766;28;45379;-40
2023/04/21 05:25:14;;;;;;;;;4.00;3.00;;;;;19.63;42.02;100517.88;5039573;28;45374;-40
2023/04/21 05:27:42;;;;;;;;;4.00;4.00;;;;;19.66;42.49;100516.88;5039556;28;45809;-42
2023/04/21 05:30:08;;;;;;;;;4.50;3.50;;;;;19.65;42.59;100528.34;5038811;28;45252;-42
2023/04/21 05:32:33;;;;;;;;;3.00;3.00;;;;;19.66;42.38;100530.03;5040318;28;45352;-43
2023/04/21 05:34:59;;;;;;;;;3.50;3.50;;;;;19.63;42.66;100536.28;5039379;28;50730;-45
2023/04/21 05:37:25;;;;;;;;;3.75;3.75;;;;;19.63;42.44;100531.03;5039273;28;45343;-42
2023/04/21 05:39:50;;;;;;;;;6.00;5.00;;;;;19.62;42.67;100525.88;5039514;28;45393;-48
2023/04/21 05:42:17;;;;;;;;;6.50;4.00;;;;;19.62;42.83;100531.13;5042187;28;45765;-47
2023/04/21 05:44:42;;;;;;;;;5.75;4.00;;;;;19.62;42.52;100534.59;5046603;28;46510;-45
2023/04/21 05:47:08;;;;;;;;;4.00;2.00;;;;;19.62;42.76;100529.34;5046014;28;45450;-48
2023/04/21 05:49:33;;;;;;;;;6.75;5.00;;;;;19.62;43.60;100531.97;5047185;28;45310;-39
2023/04/21 05:51:58;;;;;;;;;6.00;6.00;;;;;19.64;44.25;100534.53;5046629;28;45382;-42
2023/04/21 05:54:24;;;;;;;;;4.00;4.00;;;;;19.67;44.30;100536.13;5045237;28;47208;-39
2023/04/21 05:56:49;;;;;;;;;4.00;4.00;;;;;19.67;45.20;100536.13;5044574;28;45283;-40
2023/04/21 05:59:15;;;;;;;;;7.00;5.50;;;;;19.68;45.20;100537.81;5039101;28;45359;-40
2023/04/21 06:01:40;;;;;;;;;4.00;4.00;;;;;19.67;45.36;100534.38;5038751;28;45310;-39
2023/04/21 06:04:06;;;;;;;;;4.75;4.75;;;;;19.66;46.52;100532.66;5039812;28;45674;-39
2023/04/21 06:06:31;;;;;;;;;7.00;5.50;;;;;19.66;46.89;100531.81;5039237;28;45326;-43
2023/04/21 06:08:56;;;;;;;;;5.50;4.25;;;;;19.64;46.29;100529.28;5040393;28;45888;-42
2023/04/21 06:11:22;;;;;;;;;13.75;9.00;;;;;19.62;46.55;100524.06;5041641;28;45296;-41
2023/04/21 06:13:48;;;;;;;;;8.00;8.00;;;;;19.61;46.40;100527.66;5045599;28;47423;-41
2023/04/21 06:16:14;;;;;;;;;12.00;7.50;;;;;19.61;45.26;100529.44;5043738;28;45841;-40
2023/04/21 06:18:39;;;;;;;;;51.25;40.50;;;;;19.57;45.54;100520.00;5038417;28;45307;-40
2023/04/21 06:21:04;;;;;;;;;54.00;42.00;;;;;19.57;45.85;100525.28;5039757;28;45348;-45
2023/04/21 06:23:30;;;;;;;;;61.50;48.00;;;;;19.56;46.73;100531.50;5043221;28;45227;-40
2023/04/21 06:26:00;;;;;;;;;56.00;45.33;;;;;19.54;46.96;100528.09;5052479;28;57435;-39
2023/04/21 06:28:25;;;;;;;;;54.50;43.50;;;;;19.55;47.15;100527.16;5045294;28;45482;-46
2023/04/21 06:30:51;;;;;;;;;63.25;49.75;;;;;19.52;46.72;100517.66;5049343;28;45253;-40
2023/04/21 06:33:16;;;;;;;;;67.67;49.00;;;;;19.52;46.86;100524.69;5039374;28;70795;-39
2023/04/21 06:35:41;;;;;;;;;66.00;52.67;;;;;19.51;46.85;100530.88;5060047;28;62190;-43
2023/04/21 06:38:07;;;;;;;;;64.33;48.33;;;;;19.51;47.86;100531.75;5054261;28;45317;-42
2023/04/21 06:40:33;;;;;;;;;55.25;43.25;;;;;19.51;48.17;100525.63;5038771;28;45601;-42
2023/04/21 06:42:58;;;;;;;;;57.75;45.50;;;;;19.50;48.02;100523.94;5038240;28;45632;-39
2023/04/21 06:45:23;;;;;;;;;54.33;44.33;;;;;19.50;47.13;100530.06;5039959;28;53685;-38
2023/04/21 06:47:49;;;;;;;;;51.50;42.50;;;;;19.50;47.09;100521.31;5040864;28;45398;-40
2023/04/21 06:50:15;;;;;;;;;38.67;34.33;;;;;19.51;45.71;100517.75;5037617;28;51875;-39
2023/04/21 06:52:40;;;;;;;;;47.00;37.50;;;;;19.53;46.40;100519.34;5038175;28;46049;-41
2023/04/21 06:55:06;;;;;;;;;45.25;36.25;;;;;19.55;46.55;100516.66;5037798;28;45216;-40
2023/04/21 06:57:31;;;;;;;;;41.75;35.75;;;;;19.57;46.63;100522.63;5037344;28;45607;-39
2023/04/21 06:59:57;;;;;;;;;34.25;28.75;;;;;19.58;45.93;100522.56;5037049;28;45212;-45
2023/04/21 07:02:22;;;;;;;;;32.25;29.00;;;;;19.58;45.71;100519.09;5036652;28;47147;-42
2023/04/21 07:04:47;;;;;;;;;34.25;31.25;;;;;19.57;45.21;100509.50;5036019;28;45375;-39
2023/04/21 07:07:13;;;;;;;;;29.67;24.67;;;;;19.57;45.61;100525.28;5038445;28;64032;-40
2023/04/21 07:09:38;;;;;;;;;27.50;25.75;;;;;19.55;45.50;100519.28;5024229;28;45562;-39
2023/04/21 07:12:04;;;;;;;;;23.25;22.75;;;;;19.54;45.82;100528.94;5018455;28;45361;-39
2023/04/21 07:14:30;;;;;;;;;24.75;23.50;;;;;19.53;45.54;100521.13;5037762;28;45445;-39
2023/04/21 07:16:56;;;;;;;;;26.67;22.00;;;;;19.53;45.98;100513.25;5037826;28;59112;-39
2023/04/21 07:19:21;;;;;;;;;24.50;22.75;;;;;19.51;45.16;100510.72;5040342;28;45500;-39
2023/04/21 07:21:47;;;;;;;;;22.00;21.00;;;;;19.50;45.38;100509.03;5041919;28;46280;-39
2023/04/21 07:24:12;;;;;;;;;20.00;18.75;;;;;19.49;44.86;100512.59;5049914;28;45250;-41
2023/04/21 07:26:37;;;;;;;;;24.50;18.00;;;;;19.47;45.13;100509.19;5053089;28;59055;-41
2023/04/21 07:29:03;;;;;;;;;25.67;19.00;;;;;19.46;45.08;100504.84;5055975;28;51088;-40
2023/04/21 07:31:28;;;;;;;;;19.33;16.67;;;;;19.45;45.08;100498.78;5057239;28;51249;-39
2023/04/21 07:33:53;;;;;;;;;21.33;16.67;;;;;19.42;44.84;100496.31;5057740;28;55235;-38
2023/04/21 07:36:18;;;;;;;;;18.33;17.00;;;;;19.41;45.29;100502.50;5058390;28;44654;-38
2023/04/21 07:38:44;;;;;;;;;15.50;15.50;;;;;19.40;44.96;100495.53;5056342;28;45191;-38
2023/04/21 07:41:10;;;;;;;;;21.75;16.25;;;;;19.38;44.44;100499.19;5049776;28;47341;-38
2023/04/21 07:43:36;;;;;;;;;17.50;15.75;;;;;19.37;43.74;100498.31;5044888;28;45295;-42
2023/04/21 07:46:01;;;;;;;;;16.25;14.50;;;;;19.37;44.21;100498.31;5051781;28;44797;-38
2023/04/21 07:48:27;;;;;;;;;12.50;11.25;;;;;19.40;43.69;100500.78;5049323;28;45695;-40
2023/04/21 07:50:52;;;;;;;;;13.75;11.00;;;;;19.42;43.52;100495.44;5045616;28;53885;-37
2023/04/21 07:53:17;;;;;;;;;14.67;13.67;;;;;19.41;43.33;100497.22;5049435;28;57048;-38
2023/04/21 07:55:42;;;;;;;;;15.33;12.33;;;;;19.42;43.87;100498.94;5045853;28;64245;-39
2023/04/21 07:58:09;;;;;;;;;14.75;12.00;;;;;19.41;43.62;100501.63;5055949;28;45552;-39
2023/04/21 08:00:34;;;;;;;;;13.25;12.00;;;;;19.39;44.20;100491.22;5053957;28;46292;-38
2023/04/21 08:03:00;;;;;;;;;13.25;12.50;;;;;19.39;43.22;100493.00;5050265;28;45394;-40
2023/04/21 08:05:25;;;;;;;;;14.75;13.25;;;;;19.40;43.34;100487.66;5057037;28;44715;-39
2023/04/21 08:07:51;;;;;;;;;17.50;12.50;;;;;19.40;43.60;100492.91;5060711;28;44728;-39
2023/04/21 08:10:16;;;;;;;;;11.25;9.50;;;;;19.41;44.06;100491.97;5060078;28;46286;-37
2023/04/21 08:12:41;;;;;;;;;11.25;10.00;;;;;19.41;43.90;100486.72;5043524;28;45448;-39
2023/04/21 08:15:07;;;;;;;;;8.00;7.00;;;;;19.41;44.13;100488.47;5037135;28;54662;-38
2023/04/21 08:17:33;;;;;;;;;12.75;9.25;;;;;19.40;44.78;100486.81;5042829;28;45322;-40
2023/04/21 08:19:58;;;;;;;;;11.75;8.50;;;;;19.39;44.65;100491.22;5049886;28;46380;-44
2023/04/21 08:22:24;;;;;;;;;10.00;9.25;;;;;19.39;44.30;100491.22;5060030;28;45683;-39
2023/04/21 08:24:49;;;;;;;;;12.50;9.75;;;;;19.40;44.37;100492.06;5060681;28;45132;-40
2023/04/21 08:27:14;;;;;;;;;9.00;7.75;;;;;19.36;44.37;100488.75;5068542;28;44888;-39
2023/04/21 08:29:40;;;;;;;;;11.75;10.00;;;;;19.36;44.47;100480.88;5040094;28;45461;-39
2023/04/21 08:32:05;;;;;;;;;10.00;9.00;;;;;19.35;44.40;100491.47;5040439;28;56241;-40
2023/04/21 08:34:30;;;;;;;;;11.25;8.75;;;;;19.33;44.29;100488.94;5040439;28;52431;-38
2023/04/21 08:36:55;;;;;;;;;10.50;9.50;;;;;19.31;43.91;100483.75;5041508;28;45152;-40
2023/04/21 08:39:21;;;;;;;;;8.00;7.67;;;;;19.29;43.71;100485.59;5040454;28;65113;-40
2023/04/21 08:41:46;;;;;;;;;15.00;10.00;;;;;19.29;43.38;100487.41;5039305;28;46201;-40
2023/04/21 08:44:12;;;;;;;;;11.50;8.25;;;;;19.26;43.56;100483.19;5039902;28;45462;-40
2023/04/21 08:46:39;;;;;;;;;7.25;6.50;;;;;19.25;43.02;100493.75;5038987;28;51748;-40
2023/04/21 08:49:05;;;;;;;;;9.00;9.00;;;;;19.23;42.79;100487.75;5039136;28;46347;-41
2023/04/21 08:51:30;;;;;;;;;9.50;7.00;;;;;19.23;43.16;100495.63;5038066;28;45336;-41
2023/04/21 08:53:56;;;;;;;;;10.25;8.75;;;;;19.21;42.89;100479.09;5039603;28;45366;-41
2023/04/21 08:56:25;;;;;;;;;9.50;7.00;;;;;19.19;43.33;100488.84;5043722;28;45313;-40
2023/04/21 08:58:51;;;;;;;;;8.75;7.00;;;;;19.19;42.48;100484.44;5051746;28;46888;-40
2023/04/21 09:01:16;;;;;;;;;7.75;6.75;;;;;19.16;42.65;100477.56;5061727;28;45200;-39
2023/04/21 09:03:41;;;;;;;;;8.25;7.25;;;;;19.16;42.74;100482.81;5060777;28;44805;-40
2023/04/21 09:06:08;;;;;;;;;10.00;9.00;;;;;19.15;42.17;100478.50;5042717;28;50930;-38
2023/04/21 09:08:40;;;;;;;;;8.00;7.00;;;;;19.15;42.12;100486.38;5039246;28;46621;-39
2023/04/21 09:11:06;;;;;;;;;8.75;8.00;;;;;19.15;42.16;100477.66;5038855;28;45845;-39
2023/04/21 09:13:36;;;;;;;;;8.00;7.00;;;;;19.16;42.46;100480.19;5038873;28;45415;-38
2023/04/21 09:16:16;;;;;;;;;10.25;9.00;;;;;19.15;42.51;100478.50;5039050;28;45394;-40
2023/04/21 09:18:43;;;;;;;;;8.50;8.00;;;;;19.15;42.65;100482.91;5038649;28;46153;-38
2023/04/21 09:21:13;;;;;;;;;8.00;8.00;;;;;19.15;41.73;100480.28;5038871;28;45432;-38
2023/04/21 09:23:44;;;;;;;;;9.75;8.25;;;;;19.14;41.90;100482.06;5040219;28;45391;-39
2023/04/21 09:26:10;;;;;;;;;6.00;4.25;;;;;19.14;41.58;100489.94;5038841;28;45589;-39
2023/04/21 09:28:39;;;;;;;;;6.25;6.25;;;;;19.13;41.37;100484.78;5037817;28;46718;-39
2023/04/21 09:31:23;;;;;;;;;9.25;7.50;;;;;19.12;42.00;100489.19;5038620;28;45231;-39
2023/04/21 09:33:52;;;;;;;;;10.00;8.00;;;;;19.10;41.86;100485.81;5039109;28;45286;-39
2023/04/21 09:36:22;;;;;;;;;6.75;6.75;;;;;19.08;42.10;100482.41;5039009;28;45458;-39
2023/04/21 09:38:53;;;;;;;;;8.25;7.00;;;;;19.08;41.80;100484.16;5038743;28;46454;-39
2023/04/21 09:41:19;;;;;;;;;7.75;6.75;;;;;19.06;41.35;100484.25;5038616;28;45427;-39
2023/04/21 09:43:44;;;;;;;;;7.00;7.00;;;;;19.06;42.07;100479.00;5038870;28;45333;-39
2023/04/21 09:46:11;;;;;;;;;9.00;7.50;;;;;19.05;41.02;100482.56;5041331;28;45244;-38
2023/04/21 09:48:42;;;;;;;;;7.25;7.00;;;;;19.05;40.94;100481.72;5045998;28;46082;-38
2023/04/21 09:51:08;;;;;;;;;6.50;6.00;;;;;19.06;41.21;100480.81;5050560;28;45390;-39
2023/04/21 09:53:33;;;;;;;;;8.25;6.50;;;;;19.06;41.03;100472.94;5045036;28;45267;-38
2023/04/21 09:56:01;;;;;;;;;8.00;6.00;;;;;19.04;41.14;100466.91;5045831;28;45253;-39
2023/04/21 09:58:30;;;;;;;;;4.50;4.00;;;;;19.05;41.24;100476.47;5044908;28;46202;-39
2023/04/21 10:00:56;;;;;;;;;7.50;7.25;;;;;19.03;40.87;100473.91;5040798;28;45226;-39
2023/04/21 10:03:26;;;;;;;;;7.75;7.75;;;;;19.01;41.25;100465.31;5038728;28;45257;-40
2023/04/21 10:05:52;;;;;;;;;8.75;7.75;;;;;19.00;41.26;100468.84;5038568;28;46063;-38
2023/04/21 10:08:18;;;;;;;;;6.50;6.00;;;;;19.00;41.66;100463.59;5038579;28;45368;-41
2023/04/21 10:10:44;;;;;;;;;7.25;7.00;;;;;19.00;41.11;100469.69;5038499;28;45306;-41
2023/04/21 10:13:15;;;;;;;;;6.75;6.75;;;;;18.99;41.11;100468.00;5038177;28;45381;-39
2023/04/21 10:15:41;;;;;;;;;5.50;5.50;;;;;19.00;40.52;100468.84;5038323;28;45540;-38
2023/04/21 10:18:16;;;;;;;;;7.00;7.00;;;;;19.02;40.06;100464.34;5038278;28;46586;-38
2023/04/21 10:21:01;;;;;;;;;6.00;6.00;;;;;19.03;39.79;100452.06;5039513;28;45459;-38
2023/04/21 10:23:43;;;;;;;;;7.25;6.50;;;;;19.05;39.76;100461.56;5052773;28;45451;-39
2023/04/21 10:26:08;;;;;;;;;6.75;6.75;;;;;19.05;39.71;100451.03;5048349;28;45354;-38
2023/04/21 10:28:53;;;;;;;;;6.00;6.00;;;;;19.06;40.30;100449.28;5039318;28;46656;-38
2023/04/21 10:31:31;;;;;;;;;7.75;6.75;;;;;19.05;39.98;100450.22;5047179;28;46503;-39
2023/04/21 10:34:09;;;;;;;;;11.50;7.25;;;;;19.04;40.35;100459.84;5049748;28;45339;-39
2023/04/21 10:36:47;;;;;;;;;7.25;6.00;;;;;19.03;40.89;100455.53;5044691;28;45532;-39
2023/04/21 10:39:42;;;;;;;;;8.75;7.75;;;;;19.03;40.66;100452.91;5038513;28;46337;-38
2023/04/21 10:42:21;;;;;;;;;5.75;5.50;;;;;19.03;40.18;100442.41;5047710;28;45288;-39
2023/04/21 10:44:53;;;;;;;;;6.50;5.00;;;;;19.04;40.20;100443.25;5044100;28;45272;-41
2023/04/21 10:47:26;;;;;;;;;7.50;7.00;;;;;19.03;40.43;100442.41;5039879;28;45387;-39
2023/04/21 10:49:52;;;;;;;;;6.00;6.00;;;;;19.02;39.85;100443.31;5037886;28;45310;-41
2023/04/21 10:52:19;;;;;;;;;5.25;5.25;;;;;19.02;40.41;100443.31;5039934;28;45292;-40
2023/04/21 10:54:45;;;;;;;;;6.00;6.00;;;;;19.00;40.49;100439.97;5036619;28;45343;-41
2023/04/21 10:57:18;;;;;;;;;6.00;6.00;;;;;18.98;40.45;100433.94;5037546;28;45428;-39
2023/04/21 10:59:45;;;;;;;;;5.00;5.00;;;;;18.97;40.32;100427.00;5037209;28;45541;-40
2023/04/21 11:02:12;;;;;;;;;9.50;7.00;;;;;18.97;40.51;100433.06;5037208;28;45345;-40
2023/04/21 11:04:43;;;;;;;;;8.25;7.25;;;;;18.96;40.72;100427.91;5037206;28;45234;-41
2023/04/21 11:07:24;;;;;;;;;6.00;6.00;;;;;18.95;40.26;100421.84;5037458;28;45514;-38
2023/04/21 11:10:00;;;;;;;;;8.00;7.00;;;;;18.94;40.54;100421.91;5036972;28;46849;-38
2023/04/21 11:12:31;;;;;;;;;7.25;6.00;;;;;18.94;39.73;100411.41;5037442;28;45362;-41
2023/04/21 11:14:56;;;;;;;;;5.75;5.75;;;;;18.94;39.69;100417.50;5037814;28;45380;-38
2023/04/21 11:17:23;;;;;;;;;7.75;5.50;;;;;18.95;39.89;100415.72;5037680;28;45465;-41
2023/04/21 11:19:53;;;;;;;;;7.25;7.25;;;;;18.93;40.09;100412.28;5037400;28;46160;-41